Afton, Tennessee
Current Conditions -  °F | °C
As of 2:53 PM on Thursday 18 Dec 2014 (Local Time) from KTRI Reporting Station
Overcast Overcast  
Wind Chill: 41°   Ceiling: 5000
Heat Index: 41°   Visibility: 10mi
Dew Point: 28°   Wind: 0mph
Humidity: 60%   Direction: NA
Pressure: 30.11"   Gusts: NA
Location:  36.19°N, 82.74°W
Report Text: KTRI 181953Z 00000KT 10SM OVC050 05/M02 A3011 RMK AO2 SLP196 T00501022
Loading
Personal Weather Stations






























Interactive Weather Map New forecast layout! Learn more

10-Day Weather Forecast

Advertisements
Track Severe Weather on mobile